KGLS/GLS METAR and TAF weather

Enter ICAO airport designator
Station Type Date Time Source
KGLS METAR 2019/06/17 12:52 UTC NOAA

KGLS 171252Z 20005KT 7SM -RA CLR 20/ A2991 RMK AO2 SLP127 P0003 T0200


Station Type Date Time Source
KGLS Decoded METAR 2019/06/17 12:52 UTC NOAA

SCHOLES FIELD, TX, United States (KGLS) 29-16N 094-52W 6M
Jun 17, 2019 - 08:52 AM EDT / 2019.06.17 1252 UTC
Wind: from the SSW (200 degrees) at 6 MPH (5 KT):0
Visibility: 7 mile(s):0
Sky conditions: clear
Weather: light rain
Precipitation last hour: 0.03 inches
Temperature: 68 F (20 C)
Pressure (altimeter): 29.91 in. Hg (1012 hPa)
ob: KGLS 171252Z 20005KT 7SM -RA CLR 20/ A2991 RMK AO2 SLP127 P0003 T0200
cycle: 13

Station Type Date Time Source
KGLS TAF 2019/06/17 12:28 UTC NOAA

TAF KGLS 171122Z 1712/1812 10012KT 5SM SHRA VCTS SCT015CB BKN080
TEMPO 1712/1713 2SM TSRA
FM171300 17010KT 6SM -SHRA VCTS SCT025CB BKN100
FM171500 17008KT P6SM VCTS SCT018CB OVC090
FM171800 17009KT P6SM VCSH SCT015 OVC070
FM180900 19009KT P6SM FEW018 SCT200

Example: see airport list